sensor_id;sensor_type;location;lat;lon;timestamp;P1;durP1;ratioP1;P2;durP2;ratioP2
1719;SDS011;857;52.872;9.692;2024-02-21T00:00:23;27.90;;;11.67;;
1719;SDS011;857;52.872;9.692;2024-02-21T00:02:51;21.10;;;10.13;;
1719;SDS011;857;52.872;9.692;2024-02-21T00:05:18;34.13;;;12.50;;
1719;SDS011;857;52.872;9.692;2024-02-21T00:07:46;21.10;;;11.13;;
1719;SDS011;857;52.872;9.692;2024-02-21T00:10:14;27.37;;;10.70;;
1719;SDS011;857;52.872;9.692;2024-02-21T00:12:42;20.40;;;11.00;;
1719;SDS011;857;52.872;9.692;2024-02-21T00:15:10;27.00;;;11.20;;
1719;SDS011;857;52.872;9.692;2024-02-21T00:17:39;25.83;;;12.93;;
1719;SDS011;857;52.872;9.692;2024-02-21T00:20:07;16.63;;;9.10;;
1719;SDS011;857;52.872;9.692;2024-02-21T00:22:35;20.40;;;10.77;;
1719;SDS011;857;52.872;9.692;2024-02-21T00:25:03;22.20;;;10.50;;
1719;SDS011;857;52.872;9.692;2024-02-21T00:27:31;23.50;;;10.67;;
1719;SDS011;857;52.872;9.692;2024-02-21T00:29:59;21.73;;;11.27;;
1719;SDS011;857;52.872;9.692;2024-02-21T00:32:26;24.80;;;12.37;;
1719;SDS011;857;52.872;9.692;2024-02-21T00:34:55;20.70;;;11.50;;
1719;SDS011;857;52.872;9.692;2024-02-21T00:37:23;24.90;;;12.03;;
1719;SDS011;857;52.872;9.692;2024-02-21T00:39:52;16.43;;;10.00;;
1719;SDS011;857;52.872;9.692;2024-02-21T00:42:20;24.00;;;10.80;;
1719;SDS011;857;52.872;9.692;2024-02-21T00:44:48;25.03;;;10.27;;
1719;SDS011;857;52.872;9.692;2024-02-21T00:47:15;21.00;;;10.73;;
1719;SDS011;857;52.872;9.692;2024-02-21T00:49:43;24.93;;;11.53;;
1719;SDS011;857;52.872;9.692;2024-02-21T00:52:12;20.87;;;11.73;;
1719;SDS011;857;52.872;9.692;2024-02-21T00:54:40;20.57;;;10.00;;
1719;SDS011;857;52.872;9.692;2024-02-21T00:57:07;24.13;;;12.23;;
1719;SDS011;857;52.872;9.692;2024-02-21T00:59:35;30.43;;;12.30;;
1719;SDS011;857;52.872;9.692;2024-02-21T01:02:03;25.90;;;11.20;;
1719;SDS011;857;52.872;9.692;2024-02-21T01:04:31;21.47;;;11.47;;
1719;SDS011;857;52.872;9.692;2024-02-21T01:06:58;19.80;;;9.37;;
1719;SDS011;857;52.872;9.692;2024-02-21T01:09:27;18.83;;;8.40;;
1719;SDS011;857;52.872;9.692;2024-02-21T01:11:55;21.37;;;11.60;;
1719;SDS011;857;52.872;9.692;2024-02-21T01:14:23;23.50;;;10.20;;
1719;SDS011;857;52.872;9.692;2024-02-21T01:16:50;26.03;;;12.17;;
1719;SDS011;857;52.872;9.692;2024-02-21T01:19:18;25.23;;;11.07;;
1719;SDS011;857;52.872;9.692;2024-02-21T01:21:46;25.53;;;11.53;;
1719;SDS011;857;52.872;9.692;2024-02-21T01:24:13;21.50;;;10.00;;
1719;SDS011;857;52.872;9.692;2024-02-21T01:26:42;27.37;;;13.17;;
1719;SDS011;857;52.872;9.692;2024-02-21T01:29:10;26.47;;;11.80;;
1719;SDS011;857;52.872;9.692;2024-02-21T01:31:38;27.30;;;12.13;;
1719;SDS011;857;52.872;9.692;2024-02-21T01:34:05;26.47;;;12.37;;
1719;SDS011;857;52.872;9.692;2024-02-21T01:36:33;26.13;;;13.07;;
1719;SDS011;857;52.872;9.692;2024-02-21T01:39:01;32.73;;;15.63;;
1719;SDS011;857;52.872;9.692;2024-02-21T01:41:29;26.43;;;11.50;;
1719;SDS011;857;52.872;9.692;2024-02-21T01:43:58;28.53;;;13.90;;
1719;SDS011;857;52.872;9.692;2024-02-21T01:46:26;20.00;;;10.70;;
1719;SDS011;857;52.872;9.692;2024-02-21T01:48:56;21.43;;;9.17;;
1719;SDS011;857;52.872;9.692;2024-02-21T01:51:24;29.50;;;13.33;;
1719;SDS011;857;52.872;9.692;2024-02-21T01:53:52;24.53;;;11.33;;
1719;SDS011;857;52.872;9.692;2024-02-21T01:56:20;22.43;;;11.23;;
1719;SDS011;857;52.872;9.692;2024-02-21T01:58:48;26.80;;;11.57;;
1719;SDS011;857;52.872;9.692;2024-02-21T02:01:17;21.80;;;11.00;;
1719;SDS011;857;52.872;9.692;2024-02-21T02:03:45;27.83;;;12.90;;
1719;SDS011;857;52.872;9.692;2024-02-21T02:06:13;27.43;;;12.37;;
1719;SDS011;857;52.872;9.692;2024-02-21T02:08:42;27.90;;;13.23;;
1719;SDS011;857;52.872;9.692;2024-02-21T02:11:10;32.13;;;15.20;;
1719;SDS011;857;52.872;9.692;2024-02-21T02:13:37;22.97;;;12.60;;
1719;SDS011;857;52.872;9.692;2024-02-21T02:16:05;26.23;;;12.20;;
1719;SDS011;857;52.872;9.692;2024-02-21T02:18:34;27.40;;;11.60;;
1719;SDS011;857;52.872;9.692;2024-02-21T02:21:03;29.03;;;11.93;;
1719;SDS011;857;52.872;9.692;2024-02-21T02:23:33;27.60;;;12.47;;
1719;SDS011;857;52.872;9.692;2024-02-21T02:26:01;23.70;;;11.70;;
1719;SDS011;857;52.872;9.692;2024-02-21T02:31:04;23.30;;;11.47;;
1719;SDS011;857;52.872;9.692;2024-02-21T02:33:33;32.60;;;12.43;;
1719;SDS011;857;52.872;9.692;2024-02-21T02:36:00;20.93;;;9.33;;
1719;SDS011;857;52.872;9.692;2024-02-21T02:38:28;22.93;;;10.47;;
1719;SDS011;857;52.872;9.692;2024-02-21T02:40:57;25.67;;;12.20;;
1719;SDS011;857;52.872;9.692;2024-02-21T02:43:25;27.97;;;13.20;;
1719;SDS011;857;52.872;9.692;2024-02-21T02:45:52;20.57;;;10.10;;
1719;SDS011;857;52.872;9.692;2024-02-21T02:48:21;25.60;;;11.87;;
1719;SDS011;857;52.872;9.692;2024-02-21T02:50:48;13.80;;;8.30;;
1719;SDS011;857;52.872;9.692;2024-02-21T02:53:16;20.40;;;10.80;;
1719;SDS011;857;52.872;9.692;2024-02-21T02:55:44;26.90;;;13.87;;
1719;SDS011;857;52.872;9.692;2024-02-21T02:58:13;19.77;;;10.50;;
1719;SDS011;857;52.872;9.692;2024-02-21T03:00:40;26.30;;;11.63;;
1719;SDS011;857;52.872;9.692;2024-02-21T03:03:08;18.90;;;10.67;;
1719;SDS011;857;52.872;9.692;2024-02-21T03:05:36;25.83;;;10.73;;
1719;SDS011;857;52.872;9.692;2024-02-21T03:08:04;19.93;;;10.93;;
1719;SDS011;857;52.872;9.692;2024-02-21T03:10:32;29.93;;;12.03;;
1719;SDS011;857;52.872;9.692;2024-02-21T03:13:00;22.53;;;9.70;;
1719;SDS011;857;52.872;9.692;2024-02-21T03:15:30;26.30;;;13.00;;
1719;SDS011;857;52.872;9.692;2024-02-21T03:17:58;25.80;;;11.07;;
1719;SDS011;857;52.872;9.692;2024-02-21T03:20:25;25.03;;;12.60;;
1719;SDS011;857;52.872;9.692;2024-02-21T03:22:53;20.97;;;11.40;;
1719;SDS011;857;52.872;9.692;2024-02-21T03:25:21;15.70;;;8.17;;
1719;SDS011;857;52.872;9.692;2024-02-21T03:27:49;21.33;;;11.30;;
1719;SDS011;857;52.872;9.692;2024-02-21T03:30:17;31.63;;;13.60;;
1719;SDS011;857;52.872;9.692;2024-02-21T03:32:46;31.87;;;12.47;;
1719;SDS011;857;52.872;9.692;2024-02-21T03:35:14;22.00;;;10.93;;
1719;SDS011;857;52.872;9.692;2024-02-21T03:37:41;25.10;;;12.30;;
1719;SDS011;857;52.872;9.692;2024-02-21T03:40:09;26.43;;;13.10;;
1719;SDS011;857;52.872;9.692;2024-02-21T03:42:37;27.80;;;14.10;;
1719;SDS011;857;52.872;9.692;2024-02-21T03:45:05;16.17;;;10.03;;
1719;SDS011;857;52.872;9.692;2024-02-21T03:47:33;26.57;;;13.03;;
1719;SDS011;857;52.872;9.692;2024-02-21T03:50:02;24.17;;;11.47;;
1719;SDS011;857;52.872;9.692;2024-02-21T03:52:30;21.50;;;10.10;;
1719;SDS011;857;52.872;9.692;2024-02-21T03:54:58;14.53;;;8.20;;
1719;SDS011;857;52.872;9.692;2024-02-21T03:57:25;17.83;;;9.07;;
1719;SDS011;857;52.872;9.692;2024-02-21T03:59:53;21.83;;;13.03;;
1719;SDS011;857;52.872;9.692;2024-02-21T04:02:21;27.77;;;12.17;;
1719;SDS011;857;52.872;9.692;2024-02-21T04:04:48;28.97;;;13.17;;
1719;SDS011;857;52.872;9.692;2024-02-21T04:07:17;22.50;;;12.17;;
1719;SDS011;857;52.872;9.692;2024-02-21T04:09:45;17.37;;;10.27;;
1719;SDS011;857;52.872;9.692;2024-02-21T04:12:13;21.00;;;11.50;;
1719;SDS011;857;52.872;9.692;2024-02-21T04:14:40;22.73;;;10.53;;
1719;SDS011;857;52.872;9.692;2024-02-21T04:17:08;22.50;;;12.70;;
1719;SDS011;857;52.872;9.692;2024-02-21T04:19:36;23.83;;;13.17;;
1719;SDS011;857;52.872;9.692;2024-02-21T04:22:04;20.80;;;11.10;;
1719;SDS011;857;52.872;9.692;2024-02-21T04:24:33;27.20;;;12.30;;
1719;SDS011;857;52.872;9.692;2024-02-21T04:27:00;19.17;;;10.30;;
1719;SDS011;857;52.872;9.692;2024-02-21T04:29:28;25.37;;;12.70;;
1719;SDS011;857;52.872;9.692;2024-02-21T04:31:56;18.20;;;11.80;;
1719;SDS011;857;52.872;9.692;2024-02-21T04:34:24;21.43;;;13.30;;
1719;SDS011;857;52.872;9.692;2024-02-21T04:36:52;20.13;;;10.80;;
1719;SDS011;857;52.872;9.692;2024-02-21T04:39:19;21.47;;;12.90;;
1719;SDS011;857;52.872;9.692;2024-02-21T04:41:48;22.50;;;12.40;;
1719;SDS011;857;52.872;9.692;2024-02-21T04:44:16;23.83;;;11.93;;
1719;SDS011;857;52.872;9.692;2024-02-21T04:46:47;25.37;;;11.90;;
1719;SDS011;857;52.872;9.692;2024-02-21T04:49:14;24.17;;;12.80;;
1719;SDS011;857;52.872;9.692;2024-02-21T04:51:42;27.37;;;12.13;;
1719;SDS011;857;52.872;9.692;2024-02-21T04:54:10;24.30;;;11.87;;
1719;SDS011;857;52.872;9.692;2024-02-21T04:56:37;21.93;;;12.50;;
1719;SDS011;857;52.872;9.692;2024-02-21T04:59:06;17.53;;;11.30;;
1719;SDS011;857;52.872;9.692;2024-02-21T05:01:34;28.47;;;13.60;;
1719;SDS011;857;52.872;9.692;2024-02-21T05:04:02;24.90;;;12.53;;
1719;SDS011;857;52.872;9.692;2024-02-21T05:06:29;26.97;;;12.33;;
1719;SDS011;857;52.872;9.692;2024-02-21T05:08:57;26.40;;;14.10;;
1719;SDS011;857;52.872;9.692;2024-02-21T05:11:25;20.10;;;11.53;;
1719;SDS011;857;52.872;9.692;2024-02-21T05:13:52;24.70;;;12.30;;
1719;SDS011;857;52.872;9.692;2024-02-21T05:16:22;25.63;;;14.83;;
1719;SDS011;857;52.872;9.692;2024-02-21T05:18:49;23.20;;;9.80;;
1719;SDS011;857;52.872;9.692;2024-02-21T05:21:17;21.00;;;11.63;;
1719;SDS011;857;52.872;9.692;2024-02-21T05:23:45;24.17;;;11.17;;
1719;SDS011;857;52.872;9.692;2024-02-21T05:26:19;21.10;;;11.83;;
1719;SDS011;857;52.872;9.692;2024-02-21T05:28:47;22.47;;;10.43;;
1719;SDS011;857;52.872;9.692;2024-02-21T05:31:15;17.03;;;10.53;;
1719;SDS011;857;52.872;9.692;2024-02-21T05:33:44;21.80;;;11.67;;
1719;SDS011;857;52.872;9.692;2024-02-21T05:36:12;18.13;;;11.40;;
1719;SDS011;857;52.872;9.692;2024-02-21T05:38:40;27.10;;;13.77;;
1719;SDS011;857;52.872;9.692;2024-02-21T05:41:07;28.57;;;13.27;;
1719;SDS011;857;52.872;9.692;2024-02-21T05:43:35;33.30;;;12.47;;
1719;SDS011;857;52.872;9.692;2024-02-21T05:46:03;28.37;;;13.23;;
1719;SDS011;857;52.872;9.692;2024-02-21T05:48:30;15.33;;;10.00;;
1719;SDS011;857;52.872;9.692;2024-02-21T05:51:01;26.70;;;11.83;;
1719;SDS011;857;52.872;9.692;2024-02-21T05:53:29;19.80;;;10.10;;
1719;SDS011;857;52.872;9.692;2024-02-21T05:55:56;19.87;;;11.53;;
1719;SDS011;857;52.872;9.692;2024-02-21T05:58:24;29.10;;;13.27;;
1719;SDS011;857;52.872;9.692;2024-02-21T06:00:51;23.07;;;11.00;;
1719;SDS011;857;52.872;9.692;2024-02-21T06:03:19;21.23;;;11.13;;
1719;SDS011;857;52.872;9.692;2024-02-21T06:05:47;22.00;;;12.87;;
1719;SDS011;857;52.872;9.692;2024-02-21T06:08:16;22.40;;;11.37;;
1719;SDS011;857;52.872;9.692;2024-02-21T06:10:43;20.53;;;12.50;;
1719;SDS011;857;52.872;9.692;2024-02-21T06:13:11;21.07;;;10.57;;
1719;SDS011;857;52.872;9.692;2024-02-21T06:15:39;24.57;;;14.53;;
1719;SDS011;857;52.872;9.692;2024-02-21T06:18:06;22.07;;;12.30;;
1719;SDS011;857;52.872;9.692;2024-02-21T06:20:34;26.83;;;13.63;;
1719;SDS011;857;52.872;9.692;2024-02-21T06:23:04;30.83;;;14.00;;
1719;SDS011;857;52.872;9.692;2024-02-21T06:25:33;22.00;;;10.47;;
1719;SDS011;857;52.872;9.692;2024-02-21T06:28:01;23.57;;;12.20;;
1719;SDS011;857;52.872;9.692;2024-02-21T06:30:29;25.07;;;13.70;;
1719;SDS011;857;52.872;9.692;2024-02-21T06:32:56;22.07;;;12.20;;
1719;SDS011;857;52.872;9.692;2024-02-21T06:35:25;21.20;;;11.13;;
1719;SDS011;857;52.872;9.692;2024-02-21T06:37:53;25.43;;;13.20;;
1719;SDS011;857;52.872;9.692;2024-02-21T06:40:21;22.63;;;12.00;;
1719;SDS011;857;52.872;9.692;2024-02-21T06:42:50;24.53;;;12.60;;
1719;SDS011;857;52.872;9.692;2024-02-21T06:45:17;33.83;;;13.23;;
1719;SDS011;857;52.872;9.692;2024-02-21T06:47:45;25.10;;;12.80;;
1719;SDS011;857;52.872;9.692;2024-02-21T06:50:13;21.37;;;11.70;;
1719;SDS011;857;52.872;9.692;2024-02-21T06:52:40;26.27;;;12.93;;
1719;SDS011;857;52.872;9.692;2024-02-21T06:55:08;20.93;;;11.83;;
1719;SDS011;857;52.872;9.692;2024-02-21T06:57:36;24.30;;;11.33;;
1719;SDS011;857;52.872;9.692;2024-02-21T07:00:05;26.43;;;13.47;;
1719;SDS011;857;52.872;9.692;2024-02-21T07:02:33;21.97;;;11.97;;
1719;SDS011;857;52.872;9.692;2024-02-21T07:05:01;38.47;;;13.57;;
1719;SDS011;857;52.872;9.692;2024-02-21T07:07:29;18.37;;;10.67;;
1719;SDS011;857;52.872;9.692;2024-02-21T07:09:56;30.73;;;14.93;;
1719;SDS011;857;52.872;9.692;2024-02-21T07:12:25;30.20;;;14.80;;
1719;SDS011;857;52.872;9.692;2024-02-21T07:14:53;28.57;;;14.67;;
1719;SDS011;857;52.872;9.692;2024-02-21T07:17:22;21.30;;;10.83;;
1719;SDS011;857;52.872;9.692;2024-02-21T07:19:50;25.73;;;12.13;;
1719;SDS011;857;52.872;9.692;2024-02-21T07:22:18;26.63;;;14.00;;
1719;SDS011;857;52.872;9.692;2024-02-21T07:24:45;28.60;;;14.33;;
1719;SDS011;857;52.872;9.692;2024-02-21T07:27:15;32.53;;;15.07;;
1719;SDS011;857;52.872;9.692;2024-02-21T07:29:43;35.47;;;15.73;;
1719;SDS011;857;52.872;9.692;2024-02-21T07:32:13;23.70;;;12.90;;
1719;SDS011;857;52.872;9.692;2024-02-21T07:34:42;28.77;;;13.53;;
1719;SDS011;857;52.872;9.692;2024-02-21T07:37:10;28.90;;;14.00;;
1719;SDS011;857;52.872;9.692;2024-02-21T07:39:37;29.67;;;15.80;;
1719;SDS011;857;52.872;9.692;2024-02-21T07:42:05;34.50;;;15.63;;
1719;SDS011;857;52.872;9.692;2024-02-21T07:44:33;30.07;;;15.43;;
1719;SDS011;857;52.872;9.692;2024-02-21T07:47:01;22.43;;;12.20;;
1719;SDS011;857;52.872;9.692;2024-02-21T07:49:29;23.03;;;12.33;;
1719;SDS011;857;52.872;9.692;2024-02-21T07:52:00;21.63;;;11.47;;
1719;SDS011;857;52.872;9.692;2024-02-21T07:54:28;25.90;;;14.20;;
1719;SDS011;857;52.872;9.692;2024-02-21T07:56:56;26.27;;;14.53;;
1719;SDS011;857;52.872;9.692;2024-02-21T07:59:24;31.10;;;16.23;;
1719;SDS011;857;52.872;9.692;2024-02-21T08:01:51;33.57;;;15.13;;
1719;SDS011;857;52.872;9.692;2024-02-21T08:04:19;18.30;;;9.50;;
1719;SDS011;857;52.872;9.692;2024-02-21T08:06:50;29.47;;;15.73;;
1719;SDS011;857;52.872;9.692;2024-02-21T08:09:20;23.43;;;12.57;;
1719;SDS011;857;52.872;9.692;2024-02-21T08:11:48;29.97;;;15.00;;
1719;SDS011;857;52.872;9.692;2024-02-21T08:14:16;22.57;;;11.80;;
1719;SDS011;857;52.872;9.692;2024-02-21T08:16:44;31.70;;;15.60;;
1719;SDS011;857;52.872;9.692;2024-02-21T08:19:12;32.33;;;17.20;;
1719;SDS011;857;52.872;9.692;2024-02-21T08:21:39;31.70;;;16.33;;
1719;SDS011;857;52.872;9.692;2024-02-21T08:24:07;37.73;;;17.70;;
1719;SDS011;857;52.872;9.692;2024-02-21T08:26:40;41.50;;;19.00;;
1719;SDS011;857;52.872;9.692;2024-02-21T08:29:07;42.50;;;18.03;;
1719;SDS011;857;52.872;9.692;2024-02-21T08:31:35;34.80;;;18.00;;
1719;SDS011;857;52.872;9.692;2024-02-21T08:34:03;31.13;;;17.20;;
1719;SDS011;857;52.872;9.692;2024-02-21T08:36:30;34.00;;;17.27;;
1719;SDS011;857;52.872;9.692;2024-02-21T08:38:59;33.97;;;16.33;;
1719;SDS011;857;52.872;9.692;2024-02-21T08:41:27;42.13;;;18.47;;
1719;SDS011;857;52.872;9.692;2024-02-21T08:43:56;33.30;;;19.03;;
1719;SDS011;857;52.872;9.692;2024-02-21T08:46:23;37.70;;;18.50;;
1719;SDS011;857;52.872;9.692;2024-02-21T08:48:52;25.33;;;13.40;;
1719;SDS011;857;52.872;9.692;2024-02-21T08:51:19;43.60;;;19.50;;
1719;SDS011;857;52.872;9.692;2024-02-21T08:53:47;40.87;;;20.00;;
1719;SDS011;857;52.872;9.692;2024-02-21T08:56:15;30.80;;;16.67;;
1719;SDS011;857;52.872;9.692;2024-02-21T08:58:43;32.13;;;14.33;;
1719;SDS011;857;52.872;9.692;2024-02-21T09:01:12;32.17;;;17.10;;
1719;SDS011;857;52.872;9.692;2024-02-21T09:03:40;39.80;;;18.80;;
1719;SDS011;857;52.872;9.692;2024-02-21T09:06:09;32.63;;;15.30;;
1719;SDS011;857;52.872;9.692;2024-02-21T09:08:38;36.43;;;18.23;;
1719;SDS011;857;52.872;9.692;2024-02-21T09:11:06;38.13;;;19.53;;
1719;SDS011;857;52.872;9.692;2024-02-21T09:13:34;37.27;;;17.37;;
1719;SDS011;857;52.872;9.692;2024-02-21T09:16:02;33.80;;;16.63;;
1719;SDS011;857;52.872;9.692;2024-02-21T09:18:31;34.80;;;17.30;;
1719;SDS011;857;52.872;9.692;2024-02-21T09:20:58;37.03;;;16.90;;
1719;SDS011;857;52.872;9.692;2024-02-21T09:23:26;29.33;;;14.93;;
1719;SDS011;857;52.872;9.692;2024-02-21T09:25:54;24.00;;;13.90;;
1719;SDS011;857;52.872;9.692;2024-02-21T09:28:21;21.80;;;12.13;;
1719;SDS011;857;52.872;9.692;2024-02-21T09:30:49;25.13;;;13.23;;
1719;SDS011;857;52.872;9.692;2024-02-21T09:33:17;27.53;;;14.57;;
1719;SDS011;857;52.872;9.692;2024-02-21T09:35:46;35.03;;;16.60;;
1719;SDS011;857;52.872;9.692;2024-02-21T09:38:14;22.00;;;12.90;;
1719;SDS011;857;52.872;9.692;2024-02-21T09:40:41;26.87;;;13.60;;
1719;SDS011;857;52.872;9.692;2024-02-21T09:43:10;25.37;;;13.53;;
1719;SDS011;857;52.872;9.692;2024-02-21T09:45:38;33.60;;;15.60;;
1719;SDS011;857;52.872;9.692;2024-02-21T09:48:13;25.93;;;14.83;;
1719;SDS011;857;52.872;9.692;2024-02-21T09:50:43;28.60;;;14.60;;
1719;SDS011;857;52.872;9.692;2024-02-21T09:53:12;30.97;;;15.70;;
1719;SDS011;857;52.872;9.692;2024-02-21T09:55:41;32.63;;;15.27;;
1719;SDS011;857;52.872;9.692;2024-02-21T09:58:10;20.70;;;11.60;;
1719;SDS011;857;52.872;9.692;2024-02-21T10:00:39;27.50;;;13.87;;
1719;SDS011;857;52.872;9.692;2024-02-21T10:03:06;24.17;;;12.80;;
1719;SDS011;857;52.872;9.692;2024-02-21T10:05:35;24.03;;;13.10;;
1719;SDS011;857;52.872;9.692;2024-02-21T10:08:03;21.60;;;12.87;;
1719;SDS011;857;52.872;9.692;2024-02-21T10:10:41;18.00;;;9.67;;
1719;SDS011;857;52.872;9.692;2024-02-21T10:13:10;21.10;;;12.70;;
1719;SDS011;857;52.872;9.692;2024-02-21T10:15:38;27.60;;;13.50;;
1719;SDS011;857;52.872;9.692;2024-02-21T10:18:05;28.30;;;12.90;;
1719;SDS011;857;52.872;9.692;2024-02-21T10:20:33;32.73;;;15.80;;
1719;SDS011;857;52.872;9.692;2024-02-21T10:23:01;23.67;;;12.93;;
1719;SDS011;857;52.872;9.692;2024-02-21T10:25:33;21.00;;;12.30;;
1719;SDS011;857;52.872;9.692;2024-02-21T10:28:03;25.53;;;13.43;;
1719;SDS011;857;52.872;9.692;2024-02-21T10:30:31;23.23;;;14.23;;
1719;SDS011;857;52.872;9.692;2024-02-21T10:32:58;23.70;;;12.17;;
1719;SDS011;857;52.872;9.692;2024-02-21T10:35:26;23.93;;;15.33;;
1719;SDS011;857;52.872;9.692;2024-02-21T10:37:55;28.83;;;14.00;;
1719;SDS011;857;52.872;9.692;2024-02-21T10:40:26;27.73;;;11.87;;
1719;SDS011;857;52.872;9.692;2024-02-21T10:42:56;24.30;;;12.87;;
1719;SDS011;857;52.872;9.692;2024-02-21T10:47:59;25.63;;;11.53;;
1719;SDS011;857;52.872;9.692;2024-02-21T10:50:28;20.30;;;12.57;;
1719;SDS011;857;52.872;9.692;2024-02-21T10:53:00;23.23;;;13.13;;
1719;SDS011;857;52.872;9.692;2024-02-21T10:55:36;20.40;;;11.63;;
1719;SDS011;857;52.872;9.692;2024-02-21T10:58:05;23.43;;;10.67;;
1719;SDS011;857;52.872;9.692;2024-02-21T11:00:33;16.20;;;9.57;;
1719;SDS011;857;52.872;9.692;2024-02-21T11:03:02;17.30;;;10.77;;
1719;SDS011;857;52.872;9.692;2024-02-21T11:05:30;14.73;;;8.23;;
1719;SDS011;857;52.872;9.692;2024-02-21T11:07:59;23.23;;;9.57;;
1719;SDS011;857;52.872;9.692;2024-02-21T11:10:26;19.40;;;10.10;;
1719;SDS011;857;52.872;9.692;2024-02-21T11:13:04;20.13;;;9.70;;
1719;SDS011;857;52.872;9.692;2024-02-21T11:15:33;17.77;;;10.30;;
1719;SDS011;857;52.872;9.692;2024-02-21T11:18:02;13.30;;;7.53;;
1719;SDS011;857;52.872;9.692;2024-02-21T11:20:33;14.97;;;7.80;;
1719;SDS011;857;52.872;9.692;2024-02-21T11:23:01;19.80;;;9.20;;
1719;SDS011;857;52.872;9.692;2024-02-21T11:25:29;9.90;;;7.20;;
1719;SDS011;857;52.872;9.692;2024-02-21T11:27:59;11.73;;;7.60;;
1719;SDS011;857;52.872;9.692;2024-02-21T11:30:27;11.50;;;7.60;;
1719;SDS011;857;52.872;9.692;2024-02-21T11:32:59;15.20;;;8.20;;
1719;SDS011;857;52.872;9.692;2024-02-21T11:35:28;13.53;;;8.53;;
1719;SDS011;857;52.872;9.692;2024-02-21T11:38:07;12.63;;;8.07;;
1719;SDS011;857;52.872;9.692;2024-02-21T11:40:38;10.73;;;7.10;;
1719;SDS011;857;52.872;9.692;2024-02-21T11:43:06;9.10;;;6.10;;
1719;SDS011;857;52.872;9.692;2024-02-21T11:45:33;15.33;;;7.03;;
1719;SDS011;857;52.872;9.692;2024-02-21T11:48:01;16.17;;;7.80;;
1719;SDS011;857;52.872;9.692;2024-02-21T11:50:33;11.43;;;7.73;;
1719;SDS011;857;52.872;9.692;2024-02-21T11:53:01;13.77;;;7.40;;
1719;SDS011;857;52.872;9.692;2024-02-21T11:55:29;12.00;;;6.50;;
1719;SDS011;857;52.872;9.692;2024-02-21T11:57:57;10.37;;;6.20;;
1719;SDS011;857;52.872;9.692;2024-02-21T12:00:25;10.03;;;6.50;;
1719;SDS011;857;52.872;9.692;2024-02-21T12:02:53;12.70;;;7.33;;
1719;SDS011;857;52.872;9.692;2024-02-21T12:05:27;13.83;;;6.40;;
1719;SDS011;857;52.872;9.692;2024-02-21T12:07:56;14.97;;;6.93;;
1719;SDS011;857;52.872;9.692;2024-02-21T12:10:25;14.47;;;6.27;;
1719;SDS011;857;52.872;9.692;2024-02-21T12:12:53;8.60;;;5.67;;
1719;SDS011;857;52.872;9.692;2024-02-21T12:15:24;8.67;;;5.63;;
1719;SDS011;857;52.872;9.692;2024-02-21T12:17:51;7.80;;;5.20;;
1719;SDS011;857;52.872;9.692;2024-02-21T12:20:20;6.63;;;4.50;;
1719;SDS011;857;52.872;9.692;2024-02-21T12:22:49;8.90;;;5.20;;
1719;SDS011;857;52.872;9.692;2024-02-21T12:25:18;8.43;;;5.10;;
1719;SDS011;857;52.872;9.692;2024-02-21T12:27:48;9.40;;;5.40;;
1719;SDS011;857;52.872;9.692;2024-02-21T12:30:15;7.87;;;5.17;;
1719;SDS011;857;52.872;9.692;2024-02-21T12:32:43;7.90;;;4.20;;
1719;SDS011;857;52.872;9.692;2024-02-21T12:35:11;7.53;;;4.40;;
1719;SDS011;857;52.872;9.692;2024-02-21T12:37:38;10.10;;;5.13;;
1719;SDS011;857;52.872;9.692;2024-02-21T12:40:08;7.77;;;5.13;;
1719;SDS011;857;52.872;9.692;2024-02-21T12:42:40;7.90;;;4.60;;
1719;SDS011;857;52.872;9.692;2024-02-21T12:45:08;6.93;;;4.47;;
1719;SDS011;857;52.872;9.692;2024-02-21T12:47:35;10.07;;;4.77;;
1719;SDS011;857;52.872;9.692;2024-02-21T12:50:04;5.77;;;3.90;;
1719;SDS011;857;52.872;9.692;2024-02-21T12:52:32;6.60;;;4.20;;
1719;SDS011;857;52.872;9.692;2024-02-21T12:55:00;6.83;;;4.07;;
1719;SDS011;857;52.872;9.692;2024-02-21T12:57:28;8.63;;;5.27;;
1719;SDS011;857;52.872;9.692;2024-02-21T12:59:57;4.70;;;4.17;;
1719;SDS011;857;52.872;9.692;2024-02-21T13:02:25;4.73;;;3.77;;
1719;SDS011;857;52.872;9.692;2024-02-21T13:04:53;5.10;;;3.77;;
1719;SDS011;857;52.872;9.692;2024-02-21T13:07:20;5.43;;;4.00;;
1719;SDS011;857;52.872;9.692;2024-02-21T13:09:48;8.87;;;4.80;;
1719;SDS011;857;52.872;9.692;2024-02-21T13:12:16;6.63;;;4.20;;
1719;SDS011;857;52.872;9.692;2024-02-21T13:14:43;5.90;;;4.10;;
1719;SDS011;857;52.872;9.692;2024-02-21T13:17:12;6.57;;;4.47;;
1719;SDS011;857;52.872;9.692;2024-02-21T13:19:40;6.33;;;4.27;;
1719;SDS011;857;52.872;9.692;2024-02-21T13:22:08;5.50;;;3.97;;
1719;SDS011;857;52.872;9.692;2024-02-21T13:24:35;9.17;;;5.80;;
1719;SDS011;857;52.872;9.692;2024-02-21T13:27:03;9.73;;;4.60;;
1719;SDS011;857;52.872;9.692;2024-02-21T13:29:31;5.10;;;3.93;;
1719;SDS011;857;52.872;9.692;2024-02-21T13:31:59;6.10;;;3.97;;
1719;SDS011;857;52.872;9.692;2024-02-21T13:34:28;6.70;;;4.00;;
1719;SDS011;857;52.872;9.692;2024-02-21T13:36:55;6.13;;;4.87;;
1719;SDS011;857;52.872;9.692;2024-02-21T13:39:25;6.70;;;4.30;;
1719;SDS011;857;52.872;9.692;2024-02-21T13:41:52;10.60;;;4.33;;
1719;SDS011;857;52.872;9.692;2024-02-21T13:44:20;7.30;;;4.00;;
1719;SDS011;857;52.872;9.692;2024-02-21T13:46:48;5.73;;;3.77;;
1719;SDS011;857;52.872;9.692;2024-02-21T13:49:15;4.13;;;3.67;;
1719;SDS011;857;52.872;9.692;2024-02-21T13:51:45;4.60;;;3.40;;
1719;SDS011;857;52.872;9.692;2024-02-21T13:54:12;5.13;;;4.00;;
1719;SDS011;857;52.872;9.692;2024-02-21T13:56:42;6.23;;;4.63;;
1719;SDS011;857;52.872;9.692;2024-02-21T13:59:11;4.67;;;3.43;;
1719;SDS011;857;52.872;9.692;2024-02-21T14:01:39;5.47;;;4.13;;
1719;SDS011;857;52.872;9.692;2024-02-21T14:04:06;5.10;;;3.90;;
1719;SDS011;857;52.872;9.692;2024-02-21T14:06:34;5.50;;;4.70;;
1719;SDS011;857;52.872;9.692;2024-02-21T14:09:04;5.67;;;4.30;;
1719;SDS011;857;52.872;9.692;2024-02-21T14:11:31;7.67;;;4.07;;
1719;SDS011;857;52.872;9.692;2024-02-21T14:13:59;8.40;;;5.33;;
1719;SDS011;857;52.872;9.692;2024-02-21T14:16:27;5.83;;;4.30;;
1719;SDS011;857;52.872;9.692;2024-02-21T14:18:55;7.63;;;4.90;;
1719;SDS011;857;52.872;9.692;2024-02-21T14:21:22;7.93;;;4.67;;
1719;SDS011;857;52.872;9.692;2024-02-21T14:23:51;6.90;;;4.93;;
1719;SDS011;857;52.872;9.692;2024-02-21T14:26:20;6.90;;;4.10;;
1719;SDS011;857;52.872;9.692;2024-02-21T14:31:23;6.77;;;4.03;;
1719;SDS011;857;52.872;9.692;2024-02-21T14:33:51;20.73;;;11.57;;
1719;SDS011;857;52.872;9.692;2024-02-21T14:36:19;9.80;;;6.20;;
1719;SDS011;857;52.872;9.692;2024-02-21T14:38:49;14.03;;;6.80;;
1719;SDS011;857;52.872;9.692;2024-02-21T14:41:17;10.53;;;5.83;;
1719;SDS011;857;52.872;9.692;2024-02-21T14:43:46;9.70;;;6.17;;
1719;SDS011;857;52.872;9.692;2024-02-21T14:46:14;8.57;;;5.13;;
1719;SDS011;857;52.872;9.692;2024-02-21T14:48:42;11.40;;;7.70;;
1719;SDS011;857;52.872;9.692;2024-02-21T14:51:11;7.43;;;4.93;;
1719;SDS011;857;52.872;9.692;2024-02-21T14:53:38;5.67;;;4.47;;
1719;SDS011;857;52.872;9.692;2024-02-21T14:56:12;9.03;;;5.60;;
1719;SDS011;857;52.872;9.692;2024-02-21T14:58:40;5.43;;;4.80;;
1719;SDS011;857;52.872;9.692;2024-02-21T15:01:09;8.10;;;5.67;;
1719;SDS011;857;52.872;9.692;2024-02-21T15:03:38;30.00;;;14.30;;
1719;SDS011;857;52.872;9.692;2024-02-21T15:06:06;10.40;;;5.90;;
1719;SDS011;857;52.872;9.692;2024-02-21T15:08:34;15.00;;;6.90;;
1719;SDS011;857;52.872;9.692;2024-02-21T15:11:02;10.20;;;6.03;;
1719;SDS011;857;52.872;9.692;2024-02-21T15:13:30;18.53;;;13.13;;
1719;SDS011;857;52.872;9.692;2024-02-21T15:15:57;10.50;;;5.83;;
1719;SDS011;857;52.872;9.692;2024-02-21T15:18:26;7.50;;;4.83;;
1719;SDS011;857;52.872;9.692;2024-02-21T15:20:54;7.70;;;6.37;;